Time;durP1;ratioP1;P1;durP2;ratioP2;P2;SDS_P1;SDS_P2;PMS_P1;PMS_P2;Temp;Humidity;BMP_temperature;BMP_pressure;BME280_temperature;BME280_humidity;BME280_pressure;Samples;Min_cycle;Max_cycle;Signal;HPM_P1;HPM_P2
2024/01/07 00:01:26;;;;;;;15.43;9.65;;;2.70;99.90;;;;;;5113523;28;20483;-72
2024/01/07 00:03:52;;;;;;;14.52;9.68;;;2.70;99.90;;;;;;5108216;28;20020;-71
2024/01/07 00:06:18;;;;;;;16.25;9.20;;;2.70;99.90;;;;;;5112238;28;20118;-71
2024/01/07 00:08:43;;;;;;;15.65;9.55;;;2.70;99.90;;;;;;5113972;28;20028;-71
2024/01/07 00:11:09;;;;;;;12.93;8.57;;;2.70;99.90;;;;;;5113350;28;20027;-71
2024/01/07 00:13:35;;;;;;;16.63;9.60;;;2.70;99.90;;;;;;5112366;28;20099;-71
2024/01/07 00:16:00;;;;;;;17.40;10.65;;;2.60;99.90;;;;;;5113449;28;20028;-71
2024/01/07 00:18:27;;;;;;;19.70;12.00;;;2.60;99.90;;;;;;5113420;28;20134;-71
2024/01/07 00:20:53;;;;;;;15.15;9.80;;;2.60;99.90;;;;;;5111995;28;20070;-71
2024/01/07 00:23:18;;;;;;;16.55;10.23;;;2.60;99.90;;;;;;5112995;28;20027;-71
2024/01/07 00:25:44;;;;;;;17.58;11.82;;;2.60;99.90;;;;;;5079373;28;20177;-71
2024/01/07 00:28:09;;;;;;;16.88;10.10;;;2.60;99.90;;;;;;5091658;28;20032;-71
2024/01/07 00:30:35;;;;;;;18.45;10.70;;;2.50;99.90;;;;;;5092748;28;20032;-71
2024/01/07 00:33:01;;;;;;;15.52;9.82;;;2.50;99.90;;;;;;5096705;28;20023;-71
2024/01/07 00:35:26;;;;;;;15.85;9.75;;;2.50;99.90;;;;;;5111920;28;20044;-71
2024/01/07 00:37:52;;;;;;;16.52;10.40;;;2.50;99.90;;;;;;5112635;28;20023;-71
2024/01/07 00:40:17;;;;;;;17.10;10.57;;;2.50;99.90;;;;;;5112688;28;20373;-71
2024/01/07 00:42:43;;;;;;;17.77;10.13;;;2.50;99.90;;;;;;5101403;28;20073;-72
2024/01/07 00:45:09;;;;;;;18.42;10.38;;;2.50;99.90;;;;;;5090912;28;20040;-71
2024/01/07 00:47:35;;;;;;;16.95;10.45;;;2.50;99.90;;;;;;5091839;28;20097;-71
2024/01/07 00:50:00;;;;;;;16.38;10.13;;;2.50;99.90;;;;;;5092746;28;20454;-71
2024/01/07 00:52:26;;;;;;;15.70;9.32;;;2.50;99.90;;;;;;5113002;28;20032;-71
2024/01/07 00:54:52;;;;;;;14.45;9.05;;;2.50;99.90;;;;;;5111211;28;20035;-71
2024/01/07 00:57:17;;;;;;;16.13;9.70;;;2.50;99.90;;;;;;5112037;28;20032;-71
2024/01/07 00:59:43;;;;;;;17.35;10.05;;;2.50;99.90;;;;;;5115183;28;20545;-71
2024/01/07 01:02:08;;;;;;;16.95;9.93;;;2.50;99.90;;;;;;5114078;28;20046;-71
2024/01/07 01:04:34;;;;;;;16.70;10.43;;;2.50;99.90;;;;;;5116855;28;20039;-71
2024/01/07 01:06:59;;;;;;;16.50;10.98;;;2.50;99.90;;;;;;5108280;28;20035;-71
2024/01/07 01:09:28;;;;;;;16.30;10.13;;;2.60;99.90;;;;;;5099202;28;20402;-71
2024/01/07 01:11:53;;;;;;;16.60;10.88;;;2.50;99.90;;;;;;5108059;28;20115;-71
2024/01/07 01:14:19;;;;;;;17.45;10.82;;;2.50;99.90;;;;;;5096189;28;20166;-71
2024/01/07 01:16:44;;;;;;;17.77;10.60;;;2.50;99.90;;;;;;5096349;28;20035;-71
2024/01/07 01:19:10;;;;;;;18.80;11.45;;;2.50;99.90;;;;;;5096204;28;20039;-71
2024/01/07 01:21:35;;;;;;;17.33;11.05;;;2.50;99.90;;;;;;5103790;28;20036;-71
2024/01/07 01:24:01;;;;;;;20.70;11.65;;;2.50;99.90;;;;;;5102723;28;20036;-71
2024/01/07 01:26:27;;;;;;;17.88;11.05;;;2.60;99.90;;;;;;5096066;28;20055;-71
2024/01/07 01:28:52;;;;;;;19.00;11.05;;;2.50;99.90;;;;;;5077526;28;22118;-71
2024/01/07 01:31:18;;;;;;;18.90;11.27;;;2.60;99.90;;;;;;5101140;28;20073;-71
2024/01/07 01:33:43;;;;;;;19.70;12.15;;;2.50;99.90;;;;;;5116115;28;20023;-71
2024/01/07 01:36:09;;;;;;;18.80;11.27;;;2.50;99.90;;;;;;5116056;28;20023;-71
2024/01/07 01:38:35;;;;;;;19.05;11.30;;;2.50;99.90;;;;;;5116112;28;20034;-71
2024/01/07 01:41:00;;;;;;;18.52;11.15;;;2.50;99.90;;;;;;5114757;28;20106;-71
2024/01/07 01:43:27;;;;;;;20.10;11.88;;;2.50;99.90;;;;;;5115472;28;20015;-71
2024/01/07 01:45:54;;;;;;;19.33;11.18;;;2.50;99.90;;;;;;5113601;28;20028;-71
2024/01/07 01:48:20;;;;;;;19.45;11.98;;;2.50;99.90;;;;;;5113906;28;20054;-71
2024/01/07 01:50:46;;;;;;;19.13;11.93;;;2.50;99.90;;;;;;5113647;28;20388;-71
2024/01/07 01:53:12;;;;;;;19.63;11.55;;;2.40;99.90;;;;;;5114712;28;20072;-71
2024/01/07 01:55:38;;;;;;;19.80;11.75;;;2.40;99.90;;;;;;5114972;28;20099;-71
2024/01/07 01:58:04;;;;;;;19.33;12.30;;;2.40;99.90;;;;;;5115740;28;20028;-71
2024/01/07 02:00:30;;;;;;;20.95;12.00;;;2.40;99.90;;;;;;5114625;28;20027;-70
2024/01/07 02:02:56;;;;;;;18.40;11.73;;;2.50;99.90;;;;;;5115861;28;20077;-71
2024/01/07 02:05:22;;;;;;;17.77;11.23;;;2.50;99.90;;;;;;5114249;28;20093;-71
2024/01/07 02:07:48;;;;;;;18.40;12.00;;;2.40;99.90;;;;;;5116327;28;20114;-71
2024/01/07 02:10:14;;;;;;;18.40;11.50;;;2.50;99.90;;;;;;5093697;28;20552;-71
2024/01/07 02:12:39;;;;;;;17.50;10.77;;;2.50;99.90;;;;;;5095272;28;20046;-71
2024/01/07 02:15:05;;;;;;;17.65;10.68;;;2.40;99.90;;;;;;5094994;28;20055;-71
2024/01/07 02:17:31;;;;;;;17.23;10.73;;;2.40;99.90;;;;;;5095123;28;20530;-71
2024/01/07 02:19:57;;;;;;;18.58;10.75;;;2.40;99.90;;;;;;5111574;28;20027;-71
2024/01/07 02:22:22;;;;;;;18.05;11.98;;;2.40;99.90;;;;;;5113882;28;20035;-71
2024/01/07 02:24:48;;;;;;;21.08;12.43;;;2.40;99.90;;;;;;5114978;28;20035;-71
2024/01/07 02:27:14;;;;;;;18.33;11.60;;;2.40;99.90;;;;;;5115287;28;20046;-71
2024/01/07 02:29:39;;;;;;;18.23;11.88;;;2.40;99.90;;;;;;5093019;28;20032;-71
2024/01/07 02:32:06;;;;;;;17.98;11.38;;;2.40;99.90;;;;;;5095143;28;20032;-71
2024/01/07 02:34:31;;;;;;;19.13;12.15;;;2.40;99.90;;;;;;5094654;28;20036;-72
2024/01/07 02:36:57;;;;;;;19.25;11.80;;;2.40;99.90;;;;;;5094771;28;20032;-71
2024/01/07 02:39:22;;;;;;;19.05;12.05;;;2.40;99.90;;;;;;5110431;28;20051;-71
2024/01/07 02:41:49;;;;;;;20.73;12.65;;;2.40;99.90;;;;;;5114915;28;20030;-71
2024/01/07 02:44:14;;;;;;;21.40;12.35;;;2.40;99.90;;;;;;5115023;28;20151;-71
2024/01/07 02:46:40;;;;;;;18.42;12.05;;;2.40;99.90;;;;;;5115121;28;20471;-71
2024/01/07 02:49:06;;;;;;;19.10;11.57;;;2.50;99.90;;;;;;5110761;28;20461;-71
2024/01/07 02:51:31;;;;;;;19.23;11.50;;;2.50;99.90;;;;;;5113655;28;20447;-71
2024/01/07 02:53:57;;;;;;;21.08;11.55;;;2.50;99.90;;;;;;5114540;28;20024;-70
2024/01/07 02:56:22;;;;;;;20.15;12.65;;;2.50;99.90;;;;;;5113064;28;20047;-71
2024/01/07 02:58:48;;;;;;;18.92;12.07;;;2.50;99.90;;;;;;5114986;28;20031;-71
2024/01/07 03:01:13;;;;;;;19.20;11.40;;;2.50;99.90;;;;;;5114883;28;20032;-71
2024/01/07 03:03:39;;;;;;;18.48;11.23;;;2.60;99.90;;;;;;5113654;28;20027;-72
2024/01/07 03:06:04;;;;;;;18.55;11.52;;;2.60;99.90;;;;;;5112620;28;20038;-70
2024/01/07 03:08:31;;;;;;;18.10;11.23;;;2.60;99.90;;;;;;5114516;28;20028;-71
2024/01/07 03:10:57;;;;;;;20.20;12.00;;;2.60;99.90;;;;;;5114551;28;20477;-70
2024/01/07 03:13:22;;;;;;;20.23;12.07;;;2.60;99.90;;;;;;5113192;28;20118;-71
2024/01/07 03:15:48;;;;;;;21.42;11.88;;;2.60;99.90;;;;;;5114462;28;20032;-71
2024/01/07 03:18:13;;;;;;;19.13;11.75;;;2.50;99.90;;;;;;5114640;28;20038;-70
2024/01/07 03:20:39;;;;;;;19.55;12.50;;;2.50;99.90;;;;;;5114413;28;20034;-71
2024/01/07 03:23:04;;;;;;;18.23;10.65;;;2.60;99.90;;;;;;5112770;28;20026;-71
2024/01/07 03:25:30;;;;;;;19.38;12.25;;;2.60;99.90;;;;;;5113524;28;20036;-71
2024/01/07 03:27:55;;;;;;;19.48;11.73;;;2.60;99.90;;;;;;5114220;28;20024;-71
2024/01/07 03:30:21;;;;;;;19.35;11.63;;;2.60;99.90;;;;;;5114309;28;20027;-71
2024/01/07 03:32:47;;;;;;;18.88;11.82;;;2.60;99.90;;;;;;5112973;28;20039;-71
2024/01/07 03:35:12;;;;;;;20.05;12.55;;;2.60;99.90;;;;;;5114309;28;20475;-71
2024/01/07 03:37:38;;;;;;;17.15;11.07;;;2.50;99.90;;;;;;5114454;28;20024;-71
2024/01/07 03:40:08;;;;;;;20.70;11.73;;;2.50;99.90;;;;;;5114222;28;20027;-72
2024/01/07 03:42:34;;;;;;;19.05;12.10;;;2.50;99.90;;;;;;5111327;28;20036;-71
2024/01/07 03:44:59;;;;;;;18.48;11.75;;;2.50;99.90;;;;;;5114079;28;20396;-70
2024/01/07 03:47:25;;;;;;;19.23;12.90;;;2.50;99.90;;;;;;5114249;28;20050;-72
2024/01/07 03:49:50;;;;;;;18.80;12.40;;;2.50;99.90;;;;;;5114051;28;20015;-71
2024/01/07 03:52:16;;;;;;;21.33;12.40;;;2.50;99.90;;;;;;5113451;28;20095;-70
2024/01/07 03:54:42;;;;;;;19.73;12.52;;;2.50;99.90;;;;;;5100068;28;20068;-71
2024/01/07 03:57:07;;;;;;;20.85;13.00;;;2.50;99.90;;;;;;5113659;28;20105;-71
2024/01/07 03:59:33;;;;;;;21.25;13.40;;;2.50;99.90;;;;;;5111959;28;20392;-71
2024/01/07 04:01:58;;;;;;;19.17;12.82;;;2.50;99.90;;;;;;5112370;28;20055;-71
2024/01/07 04:04:24;;;;;;;19.30;12.73;;;2.50;99.90;;;;;;5093200;28;20056;-71
2024/01/07 04:06:49;;;;;;;20.55;13.05;;;2.50;99.90;;;;;;5092845;28;20028;-71
2024/01/07 04:09:15;;;;;;;20.42;12.85;;;2.50;99.90;;;;;;5098836;28;20110;-71
2024/01/07 04:11:42;;;;;;;18.17;12.38;;;2.50;99.90;;;;;;5113795;28;20066;-71
2024/01/07 04:14:08;;;;;;;21.02;12.80;;;2.50;99.90;;;;;;5113465;28;20373;-71
2024/01/07 04:16:34;;;;;;;19.80;12.80;;;2.50;99.90;;;;;;5111955;28;20073;-71
2024/01/07 04:19:00;;;;;;;17.67;12.85;;;2.50;99.90;;;;;;5111458;28;20027;-70
2024/01/07 04:21:25;;;;;;;19.63;12.65;;;2.50;99.90;;;;;;5112880;28;20100;-70
2024/01/07 04:23:51;;;;;;;19.60;12.48;;;2.50;99.90;;;;;;5112981;28;20020;-71
2024/01/07 04:26:16;;;;;;;20.25;12.68;;;2.50;99.90;;;;;;5113420;28;20027;-70
2024/01/07 04:28:43;;;;;;;19.13;12.45;;;2.50;99.90;;;;;;5112007;28;20076;-70
2024/01/07 04:31:08;;;;;;;19.48;12.80;;;2.50;99.90;;;;;;5111912;28;20027;-71
2024/01/07 04:33:34;;;;;;;20.98;13.15;;;2.50;99.90;;;;;;5113061;28;20023;-70
2024/01/07 04:36:00;;;;;;;21.42;13.25;;;2.50;99.90;;;;;;5112947;28;20409;-70
2024/01/07 04:38:26;;;;;;;21.83;13.75;;;2.50;99.90;;;;;;5113059;28;20108;-70
2024/01/07 04:40:52;;;;;;;20.73;12.73;;;2.50;99.90;;;;;;5111739;28;20039;-71
2024/01/07 04:43:20;;;;;;;21.52;13.52;;;2.50;99.90;;;;;;5112638;28;20079;-70
2024/01/07 04:45:46;;;;;;;20.52;13.07;;;2.50;99.90;;;;;;5110412;28;20031;-71
2024/01/07 04:48:13;;;;;;;21.58;13.40;;;2.50;99.90;;;;;;5110610;28;20035;-70
2024/01/07 04:50:41;;;;;;;20.25;13.45;;;2.50;99.90;;;;;;5111874;28;20028;-70
2024/01/07 04:53:07;;;;;;;20.85;13.30;;;2.50;99.90;;;;;;5113077;28;20453;-71
2024/01/07 04:55:33;;;;;;;20.58;13.63;;;2.60;99.90;;;;;;5112814;28;20092;-70
2024/01/07 04:57:58;;;;;;;19.23;12.50;;;2.50;99.90;;;;;;5113226;28;20053;-70
2024/01/07 05:00:24;;;;;;;19.75;12.35;;;2.50;99.90;;;;;;5092083;28;20458;-71
2024/01/07 05:02:49;;;;;;;21.60;13.05;;;2.50;99.90;;;;;;5110551;28;20042;-71
2024/01/07 05:05:15;;;;;;;20.00;12.88;;;2.60;99.90;;;;;;5112541;28;20699;-70
2024/01/07 05:07:40;;;;;;;17.00;10.60;;;2.50;99.90;;;;;;5112818;28;20076;-70
2024/01/07 05:10:06;;;;;;;18.95;12.40;;;2.50;99.90;;;;;;5099034;28;20092;-70
2024/01/07 05:12:32;;;;;;;18.67;11.75;;;2.50;99.90;;;;;;5092197;28;20024;-70
2024/01/07 05:14:57;;;;;;;19.70;12.25;;;2.50;99.90;;;;;;5099103;28;20173;-71
2024/01/07 05:17:23;;;;;;;19.83;12.18;;;2.50;99.90;;;;;;5113041;28;20024;-71
2024/01/07 05:19:48;;;;;;;20.55;11.50;;;2.50;99.90;;;;;;5097845;28;20028;-71
2024/01/07 05:22:14;;;;;;;20.05;11.75;;;2.50;99.90;;;;;;5092215;28;20077;-71
2024/01/07 05:24:40;;;;;;;19.15;12.23;;;2.50;99.90;;;;;;5092508;28;20088;-71
2024/01/07 05:27:05;;;;;;;18.90;12.45;;;2.40;99.90;;;;;;5107915;28;20103;-71
2024/01/07 05:29:33;;;;;;;19.52;13.20;;;2.40;99.90;;;;;;5112591;28;20039;-70
2024/01/07 05:32:00;;;;;;;20.23;13.25;;;2.40;99.90;;;;;;5112932;28;20039;-71
2024/01/07 05:34:26;;;;;;;22.25;13.98;;;2.40;99.90;;;;;;5112340;28;20464;-71
2024/01/07 05:36:52;;;;;;;21.75;13.95;;;2.40;99.90;;;;;;5109857;28;20465;-71
2024/01/07 05:39:17;;;;;;;21.00;13.85;;;2.50;99.90;;;;;;5093666;28;20105;-71
2024/01/07 05:41:43;;;;;;;22.42;14.90;;;2.50;99.90;;;;;;5092409;28;20025;-70
2024/01/07 05:44:09;;;;;;;22.10;14.20;;;2.50;99.90;;;;;;5101873;28;20102;-71
2024/01/07 05:46:39;;;;;;;22.30;14.90;;;2.50;99.90;;;;;;5114853;28;20023;-70
2024/01/07 05:49:05;;;;;;;21.90;14.73;;;2.50;99.90;;;;;;5114114;28;20024;-70
2024/01/07 05:51:31;;;;;;;24.10;15.30;;;2.50;99.90;;;;;;5114869;28;20437;-70
2024/01/07 05:53:56;;;;;;;22.33;14.65;;;2.50;99.90;;;;;;5116308;28;20366;-71
2024/01/07 05:56:22;;;;;;;22.17;13.52;;;2.50;99.90;;;;;;5116151;28;20029;-70
2024/01/07 05:58:48;;;;;;;22.80;14.35;;;2.50;99.90;;;;;;5115070;28;20574;-71
2024/01/07 06:01:19;;;;;;;23.55;15.07;;;2.50;99.90;;;;;;5115309;28;20063;-70
2024/01/07 06:03:44;;;;;;;22.73;14.55;;;2.60;99.90;;;;;;5115986;28;20457;-70
2024/01/07 06:06:12;;;;;;;23.65;14.55;;;2.60;99.90;;;;;;5116085;28;20028;-71
2024/01/07 06:08:37;;;;;;;22.27;14.52;;;2.50;99.90;;;;;;5106636;28;20024;-70
2024/01/07 06:11:03;;;;;;;21.40;13.70;;;2.60;99.90;;;;;;5116020;28;20362;-70
2024/01/07 06:13:28;;;;;;;19.52;13.25;;;2.60;99.90;;;;;;5116074;28;20084;-70
2024/01/07 06:15:54;;;;;;;22.73;12.80;;;2.50;99.90;;;;;;5111710;28;20091;-71
2024/01/07 06:18:19;;;;;;;19.58;11.52;;;2.50;99.90;;;;;;5097450;28;20028;-71
2024/01/07 06:20:45;;;;;;;18.25;10.52;;;2.50;99.90;;;;;;5114807;28;20035;-70
2024/01/07 06:23:10;;;;;;;17.35;10.82;;;2.40;99.90;;;;;;5115928;28;20039;-70
2024/01/07 06:25:36;;;;;;;19.88;11.38;;;2.40;99.90;;;;;;5114934;28;20046;-70
2024/01/07 06:28:02;;;;;;;16.58;10.60;;;2.40;99.90;;;;;;5115436;28;20035;-70
2024/01/07 06:30:27;;;;;;;19.38;10.38;;;2.40;99.90;;;;;;5115373;28;20031;-70
2024/01/07 06:32:53;;;;;;;16.45;9.85;;;2.40;99.90;;;;;;5097839;28;20035;-70
2024/01/07 06:35:18;;;;;;;21.08;10.60;;;2.40;99.90;;;;;;5095495;28;20074;-70
2024/01/07 06:37:45;;;;;;;18.08;10.68;;;2.40;99.90;;;;;;5110680;28;20514;-70
2024/01/07 06:40:11;;;;;;;16.55;9.73;;;2.40;99.90;;;;;;5115375;28;20023;-70
2024/01/07 06:42:37;;;;;;;16.83;9.32;;;2.40;99.90;;;;;;5115522;28;20047;-70
2024/01/07 06:45:03;;;;;;;15.35;8.63;;;2.40;99.90;;;;;;5114477;28;20035;-71
2024/01/07 06:47:29;;;;;;;14.32;8.30;;;2.40;99.90;;;;;;5112406;28;20024;-70
2024/01/07 06:49:54;;;;;;;15.00;8.75;;;2.40;99.90;;;;;;5115074;28;20366;-71
2024/01/07 06:52:20;;;;;;;14.90;8.68;;;2.40;99.90;;;;;;5114916;28;20024;-71
2024/01/07 06:54:46;;;;;;;14.77;8.82;;;2.40;99.90;;;;;;5114019;28;20118;-70
2024/01/07 06:57:12;;;;;;;18.35;8.60;;;2.40;99.90;;;;;;5114549;28;20529;-70
2024/01/07 06:59:37;;;;;;;17.08;8.52;;;2.30;99.90;;;;;;5114602;28;20085;-70
2024/01/07 07:02:03;;;;;;;14.77;8.60;;;2.30;99.90;;;;;;5105388;28;20115;-71
2024/01/07 07:04:29;;;;;;;15.93;9.30;;;2.40;99.90;;;;;;5113290;28;20078;-71
2024/01/07 07:06:54;;;;;;;15.82;9.18;;;2.30;99.90;;;;;;5114185;28;20024;-71
2024/01/07 07:09:20;;;;;;;17.45;8.68;;;2.40;99.90;;;;;;5114346;28;20426;-71
2024/01/07 07:11:45;;;;;;;18.08;8.88;;;2.40;99.90;;;;;;5114148;28;20038;-71
2024/01/07 07:14:11;;;;;;;19.60;8.70;;;2.40;99.90;;;;;;5114788;28;20027;-71
2024/01/07 07:16:36;;;;;;;16.15;8.15;;;2.40;99.90;;;;;;5110792;28;20020;-70
2024/01/07 07:19:02;;;;;;;14.05;8.52;;;2.40;99.90;;;;;;5099686;28;20031;-71
2024/01/07 07:21:27;;;;;;;20.20;9.23;;;2.40;99.90;;;;;;5104935;28;20040;-70
2024/01/07 07:23:53;;;;;;;16.52;8.77;;;2.40;99.90;;;;;;5113360;28;20153;-71
2024/01/07 07:26:19;;;;;;;18.05;8.48;;;2.40;99.90;;;;;;5113938;28;20036;-70
2024/01/07 07:28:44;;;;;;;15.95;8.07;;;2.40;99.90;;;;;;5113679;28;20024;-71
2024/01/07 07:31:13;;;;;;;15.70;8.38;;;2.40;99.90;;;;;;5113669;28;20132;-71
2024/01/07 07:33:39;;;;;;;16.20;8.15;;;2.40;99.90;;;;;;5113179;28;20608;-71
2024/01/07 07:36:05;;;;;;;19.17;8.15;;;2.40;99.90;;;;;;5111266;28;20035;-71
2024/01/07 07:38:31;;;;;;;14.48;7.38;;;2.40;99.90;;;;;;5112642;28;20054;-71
2024/01/07 07:40:57;;;;;;;14.52;7.80;;;2.30;99.90;;;;;;5095760;28;20023;-71
2024/01/07 07:43:22;;;;;;;15.80;8.00;;;2.30;99.90;;;;;;5114063;28;20036;-71
2024/01/07 07:45:48;;;;;;;12.70;7.30;;;2.30;99.90;;;;;;5112519;28;20077;-71
2024/01/07 07:48:13;;;;;;;14.48;8.13;;;2.30;99.90;;;;;;5113407;28;20073;-71
2024/01/07 07:50:40;;;;;;;13.70;8.00;;;2.30;99.90;;;;;;5114048;28;20073;-71
2024/01/07 07:53:06;;;;;;;15.32;8.27;;;2.20;99.90;;;;;;5112626;28;20024;-71
2024/01/07 07:55:31;;;;;;;15.63;8.05;;;2.30;99.90;;;;;;5112568;28;20112;-71
2024/01/07 07:57:57;;;;;;;15.18;8.07;;;2.30;99.90;;;;;;5112882;28;20089;-71
2024/01/07 08:00:24;;;;;;;13.95;7.53;;;2.30;99.90;;;;;;5110869;28;20136;-71
2024/01/07 08:02:49;;;;;;;14.35;8.10;;;2.30;99.90;;;;;;5113064;28;20350;-70
2024/01/07 08:05:15;;;;;;;16.00;7.95;;;2.30;99.90;;;;;;5100380;28;20131;-71
2024/01/07 08:07:41;;;;;;;14.55;7.95;;;2.30;99.90;;;;;;5111449;28;20106;-71
2024/01/07 08:10:07;;;;;;;14.48;7.90;;;2.40;99.90;;;;;;5113106;28;20104;-70
2024/01/07 08:12:33;;;;;;;17.80;8.70;;;2.30;99.90;;;;;;5113104;28;20040;-71
2024/01/07 08:14:59;;;;;;;13.13;7.68;;;2.30;99.90;;;;;;5112960;28;20031;-71
2024/01/07 08:17:24;;;;;;;15.68;8.80;;;2.40;99.90;;;;;;5106684;28;20322;-71
2024/01/07 08:19:50;;;;;;;14.10;8.02;;;2.40;99.90;;;;;;5103998;28;20063;-71
2024/01/07 08:22:15;;;;;;;12.77;7.68;;;2.50;99.90;;;;;;5112787;28;20145;-71
2024/01/07 08:24:41;;;;;;;15.38;7.68;;;2.50;99.90;;;;;;5112549;28;20377;-71
2024/01/07 08:27:07;;;;;;;14.45;7.32;;;2.40;99.90;;;;;;5111169;28;20455;-71
2024/01/07 08:29:33;;;;;;;12.30;6.95;;;2.50;99.90;;;;;;5094991;28;20366;-71
2024/01/07 08:31:58;;;;;;;14.45;6.63;;;2.50;99.90;;;;;;5104329;28;20026;-71
2024/01/07 08:34:24;;;;;;;13.30;6.80;;;2.50;99.90;;;;;;5109413;28;20039;-71
2024/01/07 08:36:50;;;;;;;13.18;6.35;;;2.40;99.90;;;;;;5105149;28;20032;-71
2024/01/07 08:39:15;;;;;;;10.85;5.95;;;2.40;99.90;;;;;;5111649;28;20023;-71
2024/01/07 08:41:41;;;;;;;11.52;6.13;;;2.40;99.90;;;;;;5112098;28;20358;-70
2024/01/07 08:44:08;;;;;;;12.77;6.43;;;2.50;99.90;;;;;;5112020;28;20102;-70
2024/01/07 08:46:34;;;;;;;8.95;5.95;;;2.40;99.90;;;;;;5109057;28;20461;-71
2024/01/07 08:49:01;;;;;;;10.48;5.80;;;2.40;99.90;;;;;;5097244;28;20047;-71
2024/01/07 08:51:27;;;;;;;12.93;5.97;;;2.40;99.90;;;;;;5111098;28;20106;-71
2024/01/07 08:53:52;;;;;;;10.82;5.45;;;2.40;99.90;;;;;;5111881;28;20421;-71
2024/01/07 08:56:18;;;;;;;10.82;5.50;;;2.40;99.90;;;;;;5109664;28;20140;-71
2024/01/07 08:58:43;;;;;;;9.13;5.45;;;2.40;99.90;;;;;;5107231;28;20376;-71
2024/01/07 09:01:09;;;;;;;8.18;5.20;;;2.40;99.90;;;;;;5111606;28;20024;-71
2024/01/07 09:03:34;;;;;;;10.68;5.20;;;2.40;99.90;;;;;;5107875;28;20028;-71
2024/01/07 09:06:00;;;;;;;9.85;6.00;;;2.40;99.90;;;;;;5111670;28;20039;-71
2024/01/07 09:08:26;;;;;;;11.88;5.30;;;2.40;99.90;;;;;;5099020;28;20434;-71
2024/01/07 09:10:51;;;;;;;11.70;5.10;;;2.40;99.90;;;;;;5112481;28;20024;-71
2024/01/07 09:13:17;;;;;;;12.43;4.65;;;2.40;99.90;;;;;;5099402;28;20515;-70
2024/01/07 09:15:43;;;;;;;9.15;4.95;;;2.40;99.90;;;;;;5092145;28;20373;-71
2024/01/07 09:18:09;;;;;;;9.10;4.75;;;2.40;99.90;;;;;;5092276;28;20134;-71
2024/01/07 09:20:35;;;;;;;9.35;4.63;;;2.40;99.90;;;;;;5104133;28;20460;-71
2024/01/07 09:23:00;;;;;;;11.25;4.43;;;2.50;99.90;;;;;;5116233;28;20024;-71
2024/01/07 09:25:26;;;;;;;9.00;4.53;;;2.50;99.90;;;;;;5115228;28;20106;-71
2024/01/07 09:27:52;;;;;;;9.63;4.63;;;2.50;99.90;;;;;;5110377;28;20031;-71
2024/01/07 09:30:19;;;;;;;8.55;4.50;;;2.60;99.90;;;;;;5104308;28;20122;-71
2024/01/07 09:32:44;;;;;;;9.35;5.07;;;2.60;99.90;;;;;;5106399;28;20035;-71
2024/01/07 09:35:10;;;;;;;10.68;4.75;;;2.60;99.90;;;;;;5113898;28;20386;-71
2024/01/07 09:37:36;;;;;;;8.80;4.47;;;2.70;99.90;;;;;;5115991;28;20090;-71
2024/01/07 09:40:04;;;;;;;8.35;4.57;;;2.60;99.90;;;;;;5116806;28;20051;-71
2024/01/07 09:42:30;;;;;;;8.35;4.20;;;2.70;99.90;;;;;;5113096;28;20476;-71
2024/01/07 09:44:56;;;;;;;8.15;4.60;;;2.70;99.90;;;;;;5105934;28;20033;-71
2024/01/07 09:47:23;;;;;;;9.65;4.00;;;2.70;99.90;;;;;;5108843;28;20075;-71
2024/01/07 09:49:49;;;;;;;8.32;4.40;;;2.70;99.90;;;;;;5115693;28;20387;-71
2024/01/07 09:52:14;;;;;;;7.82;3.95;;;2.70;99.90;;;;;;5115619;28;20548;-70
2024/01/07 09:54:40;;;;;;;9.88;4.30;;;2.70;99.90;;;;;;5114894;28;20130;-71
2024/01/07 09:57:07;;;;;;;8.35;4.18;;;2.70;99.90;;;;;;5116368;28;20393;-71
2024/01/07 09:59:37;;;;;;;10.52;5.07;;;2.70;99.90;;;;;;5115834;28;20035;-71
2024/01/07 10:02:03;;;;;;;8.43;4.60;;;2.70;99.90;;;;;;5113482;28;20028;-71
2024/01/07 10:04:30;;;;;;;8.77;3.88;;;2.70;99.90;;;;;;5110303;28;20526;-71
2024/01/07 10:06:55;;;;;;;8.77;4.25;;;2.70;99.90;;;;;;5115880;28;20064;-71
2024/01/07 10:09:42;;;;;;;8.50;3.90;;;2.70;99.90;;;;;;5096829;28;20028;-71
2024/01/07 10:15:54;;;;;;;9.32;3.80;;;2.90;99.90;;;;;;5098989;28;20071;-71
2024/01/07 10:18:20;;;;;;;8.82;3.78;;;3.00;99.90;;;;;;5095475;28;20027;-71
2024/01/07 10:20:46;;;;;;;8.35;3.63;;;3.10;99.90;;;;;;5099673;28;20106;-71
2024/01/07 10:23:12;;;;;;;10.02;3.90;;;3.10;99.90;;;;;;5115783;28;20055;-71
2024/01/07 10:25:37;;;;;;;6.57;3.50;;;3.20;99.90;;;;;;5114282;28;20065;-71
2024/01/07 10:28:03;;;;;;;9.75;3.70;;;3.30;99.90;;;;;;5115490;28;20373;-71
2024/01/07 10:30:32;;;;;;;7.97;3.28;;;3.40;99.90;;;;;;5113367;28;20035;-71
2024/01/07 10:32:58;;;;;;;7.97;3.92;;;3.50;99.90;;;;;;5113858;28;20496;-71
2024/01/07 10:35:34;;;;;;;9.43;3.95;;;3.50;99.90;;;;;;5112537;28;20028;-71
2024/01/07 10:38:01;;;;;;;6.53;3.50;;;3.60;99.90;;;;;;5113715;28;20031;-71
2024/01/07 10:40:31;;;;;;;6.45;3.50;;;3.70;99.90;;;;;;5113894;28;20034;-71
2024/01/07 10:42:57;;;;;;;6.68;3.15;;;3.80;99.90;;;;;;5114954;28;20042;-71
2024/01/07 10:45:23;;;;;;;5.60;3.47;;;3.80;99.90;;;;;;5114753;28;20036;-71
2024/01/07 10:47:53;;;;;;;6.10;3.15;;;3.70;99.90;;;;;;5112709;28;20407;-71
2024/01/07 10:50:19;;;;;;;4.95;3.22;;;3.80;99.90;;;;;;5114806;28;20062;-71
2024/01/07 10:53:02;;;;;;;5.63;3.00;;;3.80;99.90;;;;;;5114155;28;20373;-71
2024/01/07 10:55:36;;;;;;;5.53;3.15;;;3.70;99.90;;;;;;5103890;28;20036;-71
2024/01/07 10:58:03;;;;;;;8.75;3.55;;;3.70;99.90;;;;;;5094887;28;20488;-71
2024/01/07 11:00:30;;;;;;;6.40;3.17;;;3.80;99.90;;;;;;5106520;28;20020;-71
2024/01/07 11:03:13;;;;;;;4.55;3.00;;;3.80;99.90;;;;;;5093738;28;20449;-71
2024/01/07 11:05:52;;;;;;;7.95;3.05;;;3.80;99.90;;;;;;5101284;28;20055;-71
2024/01/07 11:08:32;;;;;;;6.32;3.10;;;3.70;99.90;;;;;;5114522;28;20088;-71
2024/01/07 11:11:14;;;;;;;5.68;3.40;;;3.70;99.90;;;;;;5114960;28;20030;-71
2024/01/07 11:13:40;;;;;;;10.52;3.42;;;3.70;99.90;;;;;;5113927;28;20027;-71
2024/01/07 11:16:10;;;;;;;7.38;3.65;;;3.70;99.90;;;;;;5114495;28;20027;-71
2024/01/07 11:18:45;;;;;;;8.73;3.60;;;3.80;99.90;;;;;;5113707;28;20059;-71
2024/01/07 11:21:10;;;;;;;7.35;3.67;;;3.90;99.90;;;;;;5114536;28;20032;-71
2024/01/07 11:23:42;;;;;;;5.63;3.03;;;3.90;99.90;;;;;;5114679;28;20097;-71
2024/01/07 11:26:11;;;;;;;4.28;2.72;;;3.80;99.90;;;;;;5114679;28;20043;-71
2024/01/07 11:28:56;;;;;;;4.78;2.90;;;3.80;99.90;;;;;;5114041;28;20042;-71
2024/01/07 11:31:42;;;;;;;5.28;2.88;;;3.70;99.90;;;;;;5111399;28;20040;-71
2024/01/07 11:34:09;;;;;;;7.25;3.58;;;3.60;99.90;;;;;;5110035;28;20031;-71
2024/01/07 11:36:38;;;;;;;5.50;2.95;;;3.50;99.90;;;;;;5114433;28;20411;-71
2024/01/07 11:39:06;;;;;;;5.80;2.90;;;3.60;99.90;;;;;;5113339;28;20425;-72
2024/01/07 11:41:33;;;;;;;5.90;2.60;;;3.60;99.90;;;;;;5113004;28;20477;-72
2024/01/07 11:44:00;;;;;;;4.85;2.75;;;3.60;99.90;;;;;;5112950;28;20074;-71
2024/01/07 11:46:30;;;;;;;4.88;2.53;;;3.50;99.90;;;;;;5113914;28;20126;-72
2024/01/07 11:48:58;;;;;;;7.93;2.83;;;4.00;99.90;;;;;;5113761;28;20023;-72
2024/01/07 11:51:26;;;;;;;3.90;2.10;;;4.60;99.90;;;;;;5113412;28;20034;-72
2024/01/07 11:53:52;;;;;;;4.43;2.15;;;5.30;99.90;;;;;;5103940;28;20036;-72
2024/01/07 11:56:18;;;;;;;5.53;2.20;;;5.70;99.90;;;;;;5112523;28;20039;-72
2024/01/07 11:58:44;;;;;;;3.88;2.17;;;6.10;99.90;;;;;;5113072;28;20569;-71
2024/01/07 12:01:09;;;;;;;4.57;1.90;;;6.40;99.90;;;;;;5096533;28;20031;-72
2024/01/07 12:03:35;;;;;;;4.80;2.20;;;6.60;99.90;;;;;;5093592;28;20028;-72
2024/01/07 12:06:00;;;;;;;4.55;2.22;;;6.70;99.90;;;;;;5093062;28;20097;-72
2024/01/07 12:08:26;;;;;;;4.75;2.33;;;6.80;99.90;;;;;;5101614;28;20031;-72
2024/01/07 12:10:52;;;;;;;4.53;2.03;;;6.80;99.90;;;;;;5111847;28;20046;-72
2024/01/07 12:13:19;;;;;;;4.88;2.63;;;6.90;99.90;;;;;;5113315;28;20086;-72
2024/01/07 12:15:45;;;;;;;5.32;2.25;;;7.00;99.90;;;;;;5107891;28;20030;-72
2024/01/07 12:18:11;;;;;;;2.55;1.67;;;7.10;99.90;;;;;;5092634;28;20448;-72
2024/01/07 12:20:36;;;;;;;2.65;1.95;;;7.10;99.90;;;;;;5106051;28;20115;-72
2024/01/07 12:23:07;;;;;;;5.95;2.42;;;7.00;99.90;;;;;;5110993;28;20020;-71
2024/01/07 12:25:32;;;;;;;3.75;2.15;;;6.90;99.90;;;;;;5113032;28;20040;-70
2024/01/07 12:27:58;;;;;;;5.38;2.40;;;6.80;99.90;;;;;;5113224;28;20034;-72
2024/01/07 12:30:24;;;;;;;5.90;2.55;;;6.50;99.90;;;;;;5110911;28;20381;-71
2024/01/07 12:32:52;;;;;;;4.07;2.40;;;6.10;99.90;;;;;;5109718;28;20031;-72
2024/01/07 12:35:17;;;;;;;4.38;2.47;;;5.90;99.90;;;;;;5111420;28;20088;-72
2024/01/07 12:37:44;;;;;;;5.10;2.40;;;5.90;99.90;;;;;;5112725;28;20465;-70
2024/01/07 12:40:12;;;;;;;7.30;2.22;;;5.90;99.90;;;;;;5112912;28;20027;-70
2024/01/07 12:42:44;;;;;;;4.75;2.35;;;5.60;99.90;;;;;;5112676;28;20045;-71
2024/01/07 12:45:13;;;;;;;6.22;3.00;;;5.50;99.90;;;;;;5113322;28;20085;-70